Decoded Metar for KSAN (SAN DIEGO in CA, USA) (IATA:SAN) | Meteo·Mobile Aviation Weather
aviador You're here:

KSAN Decoded Metar

SAN DIEGO in CA, USA
Report Time2018-10-23 22:51:00
UTC Time2018-10-23 23:06:28
Flight Rules mvfr MVFR
Wind300° at 09 kt
W.Decomp.*RWY 27: 8.7 kt HW 2.5 kt RCW
W.Rank300° ranks 1
Current wind is above 300° avg. (7.3)
Visibility9999 m
Phenomena:N/A
Clouds:Broken 016 Hf
Expected CloudBase > 1,200 ft AGL from Temp-Dew spread
Ceiling1,600 ft
Temp19°C (ISA +4)
Dew Point16°C (83% RH)
AAT17.8°C
QNH1012 hPa
Density Alt794 ft
Elevation39 ft
Report Wrong Elevation
Raw Report
KSAN 232251Z 30009KT 8SM BKN016 19/16 A2987 RMK AO2 SLP115
T01940156=

Extra information for KSAN:More info

Metar Taf Metar & Taf Last 4 Metars F.Rules Stats Wind Profile Meteogram Temp Stats Airport Information Weather charts Add Link Nearby VenuesMetar ALERT Operation Metar Decoded Social comments

AIRNAV info for KSAN